ENSH

Svolvær Helle Airport

Svolvær, Norway
METAR ENSH 101550Z 03012KT CAVOK 02/M03 Q1010 RMK WIND 150FT 36012KT
Observed Flight Rules
Dec-10 @ 15:50 UTC (26 minutes ago) Visual Flight Rules
Wind Visibility Clouds
30° at 12 knots 10,000+ meters
  • Clear skies
Temperatures Readings
Current 2°C / 36°F
Dewpoint -3°C / 27°F
Humidity 70%
Altimeter 29.82" Hg
Pressure 1010 hPa
Elevation 9
METAR ENSH 101550Z 03012KT CAVOK 02/M03 Q1010 RMK WIND 150FT 36012KT
Observed Flight Rules
Dec-10 @ 15:50 UTC
(26 minutes ago)
VFR
Wind Visibility
30° at 12 knots 10,000+ meters
Clouds
  • Clear skies
Temperature Dewpoint
2°C / 36°F -3°C / 27°F
Humidity Altimeter Pressure
70% 29.82" Hg 1010 hPa